Latest Weather Observations for Lismore Airport

IDN60801

Issued at 11:03 am EST Saturday 1 October 2016 (issued every 30 minutes, with the page automatically refreshed every 10 minutes)

About weather observations | Map of weather stations | Latest weather observations for NSW | Other Formats
Station Details ID: 058214 Name: LISMORE AIRPORT AWS Lat: -28.83 Lon: 153.26 Height: 9.21 m
Data from the previous 72 hours. | See also: Recent months at Lismore Airport
Date/Time
EST
Temp
°C
App
Temp
°C
Dew
Point
°C
Rel
Hum
%
Delta-T
°C
Wind Press
QNH
hPa
Press
MSL
hPa
Rain since
9am
mm
Dir  Spd
km/h
Gust
km/h
Spd
kts
Gust
kts
01/10:30am 22.3 15.7 4.4 31 8.8 WNW 28 41 15 22 1011.4 1011.4 0.0
01/10:00am 22.0 15.6 5.4 34 8.3 NW 28 37 15 20 1011.7 1011.7 0.0
01/09:30am 20.8 15.4 4.4 34 7.9 NW 22 32 12 17 1012.1 1012.1 0.0
01/09:00am 20.5 15.0 4.1 34 7.9 W 22 37 12 20 1012.4 1012.4 0.0
01/08:30am 19.7 14.6 4.2 36 7.4 NW 20 30 11 16 1012.4 1012.4 0.0
01/08:00am 18.5 13.4 4.3 39 6.8 NW 20 28 11 15 1012.2 1012.2 0.0
01/07:30am 16.2 13.5 7.2 55 4.5 N 11 15 6 8 1012.1 1012.1 0.0
01/07:00am 14.3 11.5 6.9 61 3.6 N 11 15 6 8 1011.8 1011.8 0.0
01/06:30am 11.5 8.1 5.8 68 2.6 N 13 17 7 9 1011.2 1011.2 0.0
01/06:00am 9.9 5.5 4.7 70 2.3 N 17 19 9 10 1010.9 1010.9 0.0
01/05:30am 8.3 4.2 4.1 75 1.8 N 15 17 8 9 1010.7 1010.7 0.0
01/05:00am 9.2 4.7 4.2 71 2.2 N 17 19 9 10 1010.4 1010.4 0.0
01/04:30am 8.4 3.9 4.0 74 1.9 N 17 20 9 11 1010.0 1010.0 0.0
01/04:00am 9.5 4.9 3.7 67 2.5 NW 17 28 9 15 1009.4 1009.4 0.0
01/03:30am 6.2 2.8 3.9 85 1.0 NW 11 19 6 10 1009.2 1009.2 0.0
01/03:00am 7.4 3.3 4.5 82 1.3 N 15 17 8 9 1009.2 1009.2 0.0
01/02:30am 7.5 3.1 4.5 81 1.3 N 17 17 9 9 1009.2 1009.2 0.0
01/02:00am 8.7 4.8 5.3 79 1.5 NNE 15 17 8 9 1009.3 1009.3 0.0
01/01:30am 8.1 4.5 5.0 81 1.4 N 13 15 7 8 1009.4 1009.4 0.0
01/01:00am 8.1 5.0 3.6 73 1.9 N 9 13 5 7 1009.2 1009.2 0.0
01/12:30am 8.8 5.2 4.8 76 1.8 NNW 13 19 7 10 1009.1 1009.1 0.0
01/12:00am 10.6 6.9 4.5 66 2.7 NNE 13 15 7 8 1009.1 1009.1 0.0
 
Date/Time
EST
Temp
°C
App
Temp
°C
Dew
Point
°C
Rel
Hum
%
Delta-T
°C
Wind Press
QNH
hPa
Press
MSL
hPa
Rain since
9am
mm
Dir  Spd
km/h
Gust
km/h
Spd
kts
Gust
kts
30/11:30pm 9.9 5.9 4.9 71 2.2 NW 15 17 8 9 1008.9 1008.9 0.0
30/11:00pm 10.5 7.3 4.9 68 2.5 N 11 11 6 6 1009.0 1009.0 0.0
30/10:30pm 9.2 5.8 3.8 69 2.4 NNW 11 15 6 8 1009.1 1009.1 0.0
30/10:00pm 13.4 10.0 3.8 52 4.3 NE 11 15 6 8 1009.2 1009.2 0.0
30/09:30pm 13.0 8.9 4.2 55 4.0 NW 15 19 8 10 1008.8 1008.8 0.0
30/09:00pm 12.5 9.6 4.5 58 3.7 NNW 9 13 5 7 1008.9 1008.9 0.0
30/08:30pm 13.1 8.8 3.2 51 4.4 NNW 15 17 8 9 1008.8 1008.8 0.0
30/08:00pm 14.2 11.4 3.1 47 5.0 ENE 7 11 4 6 1008.5 1008.5 0.0
30/07:30pm 15.1 10.3 2.6 43 5.6 WNW 17 20 9 11 1007.5 1007.5 0.0
30/07:00pm 15.3 11.9 2.1 41 5.9 WNW 9 15 5 8 1007.4 1007.4 0.0
30/06:30pm 18.0 14.2 1.5 33 7.4 WNW 11 22 6 12 1006.8 1006.8 0.0
30/06:00pm 17.7 12.4 1.7 34 7.2 WNW 19 24 10 13 1005.9 1005.9 0.0
30/05:30pm 20.2 11.7 0.6 27 8.8 W 35 54 19 29 1005.3 1005.3 0.0
30/05:22pm 20.3 12.4 1.2 28 8.7 WNW 32 54 17 29 1005.2 1005.2 0.0
30/05:00pm 21.1 14.7 0.9 26 9.2 W 24 32 13 17 1005.4 1005.4 0.0
30/04:30pm 21.9 16.2 0.4 24 9.7 WNW 20 41 11 22 1004.6 1004.6 0.0
30/04:18pm 22.2 15.2 1.8 26 9.5 W 28 46 15 25 1004.3 1004.3 0.0
30/04:00pm 22.6 14.6 1.6 25 9.8 WNW 33 50 18 27 1003.8 1003.8 0.0
30/03:52pm 22.7 15.6 1.1 24 10.0 WNW 28 50 15 27 1003.7 1003.7 0.0
30/03:30pm 23.0 14.7 1.9 25 9.9 WNW 35 48 19 26 1003.3 1003.3 0.0
30/03:00pm 23.5 15.3 2.9 26 9.9 NW 35 54 19 29 1002.7 1002.7 0.0
30/02:49pm 23.5 15.9 2.9 26 9.9 NW 32 50 17 27 1002.5 1002.5 0.0
30/02:30pm 23.3 15.1 2.7 26 9.8 NW 35 50 19 27 1002.6 1002.6 0.0
30/02:00pm 23.6 14.1 1.9 24 10.3 NW 41 67 22 36 1002.6 1002.6 0.0
30/01:42pm 23.6 15.2 1.3 23 10.4 WNW 35 59 19 32 1002.5 1002.5 0.0
30/01:30pm 24.0 15.4 2.8 25 10.2 NW 37 52 20 28 1002.2 1002.2 0.0
30/01:00pm 23.6 14.9 1.9 24 10.3 NW 37 56 20 30 1001.9 1001.9 0.0
30/12:30pm 23.0 14.3 1.9 25 9.9 NW 37 61 20 33 1002.3 1002.3 0.0
30/12:01pm 23.1 14.5 2.6 26 9.8 WNW 37 56 20 30 1002.4 1002.4 0.0
30/12:00pm 23.2 14.2 2.7 26 9.8 WNW 39 56 21 30 1002.4 1002.4 0.0
30/11:30am 23.1 15.4 3.6 28 9.5 NW 33 54 18 29 1002.8 1002.8 0.0
30/11:00am 22.1 14.0 3.3 29 9.0 WNW 35 56 19 30 1003.2 1003.2 0.0
30/10:30am 22.1 14.3 4.7 32 8.6 NW 35 54 19 29 1003.6 1003.6 0.0
30/10:00am 21.3 13.6 3.5 31 8.5 NW 33 52 18 28 1004.2 1004.2 0.0
30/09:30am 20.4 11.7 1.8 29 8.5 NW 37 57 20 31 1004.5 1004.5 0.0
30/09:05am 20.1 10.9 1.0 28 8.6 NW 39 57 21 31 1004.6 1004.6 0.0
30/09:00am 19.9 9.9 0.9 28 8.6 NW 43 57 23 31 1004.6 1004.6 0.0
30/08:30am 19.4 11.5 0.9 29 8.3 NW 32 50 17 27 1005.1 1005.1 0.0
30/08:03am 19.2 12.5 3.4 35 7.4 NW 28 46 15 25 1005.6 1005.6 0.0
30/08:00am 18.9 11.6 2.7 34 7.5 NW 30 46 16 25 1005.6 1005.6 0.0
30/07:49am 18.8 11.9 2.6 34 7.5 NW 28 48 15 26 1005.8 1005.8 0.0
30/07:30am 18.6 12.5 4.8 40 6.6 NW 26 39 14 21 1005.9 1005.9 0.0
30/07:00am 17.9 11.4 4.8 42 6.3 NW 28 41 15 22 1005.8 1005.8 0.0
30/06:30am 17.4 11.7 6.6 49 5.3 WNW 26 33 14 18 1005.5 1005.5 0.0
30/06:00am 16.9 11.0 7.5 54 4.7 WNW 28 35 15 19 1005.2 1005.2 0.0
30/05:30am 16.4 12.5 9.6 64 3.5 WNW 20 30 11 16 1005.0 1005.0 0.0
30/05:00am 17.1 12.6 10.2 64 3.7 WNW 24 32 13 17 1004.7 1004.7 0.0
30/04:30am 13.9 12.5 10.9 82 1.6 N 9 15 5 8 1004.4 1004.4 0.0
30/04:00am 12.6 10.8 9.6 82 1.5 N 9 11 5 6 1004.4 1004.4 0.0
30/03:30am 14.3 13.1 11.6 84 1.4 NNE 9 13 5 7 1004.4 1004.4 0.0
30/03:00am 14.5 12.8 12.4 87 1.1 N 13 15 7 8 1004.3 1004.3 0.0
30/02:30am 15.4 13.8 12.7 84 1.5 NNW 13 15 7 8 1004.4 1004.4 0.0
30/02:00am 16.1 13.7 12.7 80 1.9 N 17 20 9 11 1004.7 1004.7 0.0
30/01:30am 16.7 15.6 14.2 85 1.4 NNW 13 15 7 8 1004.8 1004.8 0.0
30/01:00am 17.4 15.2 14.3 82 1.8 N 19 26 10 14 1005.2 1005.2 0.0
30/12:30am 19.8 16.3 13.5 67 3.6 NW 24 39 13 21 1005.4 1005.4 0.0
30/12:00am 19.9 16.4 13.4 66 3.7 NW 24 33 13 18 1004.9 1004.9 0.0
 
Date/Time
EST
Temp
°C
App
Temp
°C
Dew
Point
°C
Rel
Hum
%
Delta-T
°C
Wind Press
QNH
hPa
Press
MSL
hPa
Rain since
9am
mm
Dir  Spd
km/h
Gust
km/h
Spd
kts
Gust
kts
29/11:30pm 19.8 17.0 13.3 66 3.7 NNW 20 32 11 17 1004.8 1004.8 0.0
29/11:00pm 19.3 15.6 12.8 66 3.7 NNW 24 32 13 17 1004.8 1004.8 0.0
29/10:30pm 18.2 15.8 12.6 70 3.1 NNW 17 24 9 13 1004.9 1004.9 0.0
29/10:00pm 17.9 16.2 12.4 70 3.1 N 13 17 7 9 1004.6 1004.6 0.0
29/09:30pm 16.9 15.2 12.4 75 2.5 N 13 17 7 9 1004.6 1004.6 0.0
29/09:00pm 16.1 15.2 11.5 74 2.5 N 7 9 4 5 1004.2 1004.2 0.0
29/08:30pm 17.0 15.9 11.9 72 2.8 NNW 9 11 5 6 1004.0 1004.0 0.0
29/08:00pm 16.5 14.4 11.2 71 2.9 NNW 13 15 7 8 1003.8 1003.8 0.0
29/07:30pm 17.3 15.0 11.6 69 3.1 N 15 20 8 11 1003.8 1003.8 0.0
29/07:00pm 18.2 15.4 11.5 65 3.7 N 17 24 9 13 1004.1 1004.1 0.0
29/06:30pm 18.7 16.1 12.0 65 3.7 N 17 24 9 13 1004.0 1004.0 0.0
29/06:00pm 19.7 17.3 12.7 64 4.0 N 17 32 9 17 1003.8 1003.8 0.0
29/05:30pm 20.1 17.6 12.3 61 4.4 N 17 26 9 14 1003.7 1003.7 0.0
29/05:00pm 20.7 17.7 12.4 59 4.7 N 20 32 11 17 1003.5 1003.5 0.0
29/04:30pm 21.6 17.9 12.7 57 5.1 N 24 33 13 18 1003.3 1003.3 0.0
29/04:00pm 22.5 17.3 12.7 54 5.6 NNW 32 41 17 22 1003.6 1003.6 0.0
29/03:30pm 22.8 17.9 12.7 53 5.8 N 30 43 16 23 1003.3 1003.3 0.0
29/03:00pm 23.0 19.2 12.3 51 6.1 N 24 39 13 21 1003.4 1003.4 0.0
29/02:30pm 21.9 16.7 11.6 52 5.7 NNW 30 43 16 23 1003.8 1003.8 0.0
29/02:00pm 21.4 15.9 12.0 55 5.3 N 32 41 17 22 1004.3 1004.3 0.0
29/01:30pm 22.6 18.0 12.3 52 5.8 NNW 28 37 15 20 1004.7 1004.7 0.0
29/01:00pm 22.7 16.1 11.4 49 6.3 NNW 37 48 20 26 1005.3 1005.3 0.0
29/12:30pm 23.2 16.5 9.6 42 7.4 NNW 35 48 19 26 1005.4 1005.4 0.0
29/12:05pm 23.7 17.7 6.9 34 8.7 NNW 28 54 15 29 1005.5 1005.5 0.0
29/12:00pm 23.3 18.2 9.3 41 7.6 NNW 26 37 14 20 1005.7 1005.7 0.0
29/11:30am 24.1 19.7 8.9 38 8.2 N 22 30 12 16 1004.8 1004.8 0.0
29/11:00am 23.8 21.3 11.2 45 7.1 N 15 20 8 11 1005.5 1005.5 0.0
29/10:30am 23.4 21.3 12.4 50 6.3 N 15 19 8 10 1006.2 1006.2 0.0
29/10:00am 21.3 21.6 14.5 65 4.0 N 6 11 3 6 1006.4 1006.4 0.0
29/09:30am 19.5 19.2 15.4 77 2.4 NNW 11 13 6 7 1006.9 1006.9 0.0
29/09:00am 18.0 17.4 14.7 81 1.9 N 11 13 6 7 1007.3 1007.3 0.0
29/08:30am 16.2 15.6 13.5 84 1.5 N 9 11 5 6 1007.8 1007.8 0.0
29/08:00am 15.3 15.0 13.2 87 1.2 N 7 9 4 5 1008.3 1008.3 0.0
29/07:30am 14.4 13.9 12.6 89 1.0 N 7 9 4 5 1008.5 1008.5 0.0
29/07:00am 13.8 13.3 12.2 90 0.9 NNE 6 13 3 7 1008.5 1008.5 0.0
29/06:30am 13.1 12.0 11.8 92 0.7 NNE 9 15 5 8 1008.4 1008.4 0.0
29/06:00am 12.8 13.3 11.7 93 0.6 CALM 0 0 0 0 1008.6 1008.6 0.0
29/05:30am 12.5 11.9 11.6 94 0.5 N 6 7 3 4 1008.2 1008.2 0.0
29/05:00am 12.3 11.5 11.2 93 0.6 NW 6 9 3 5 1008.6 1008.6 0.0
29/04:30am 12.2 12.6 11.3 94 0.5 CALM 0 0 0 0 1008.4 1008.4 0.0
29/04:00am 11.9 12.2 10.8 93 0.6 CALM 0 0 0 0 1008.7 1008.7 0.0
29/03:30am 12.5 12.9 11.2 92 0.7 CALM 0 0 0 0 1009.1 1009.1 0.0
29/03:00am 12.4 10.7 11.1 92 0.7 N 11 11 6 6 1009.1 1009.1 0.0
29/02:30am 12.2 10.9 11.1 93 0.6 N 9 13 5 7 1009.7 1009.7 0.0
29/02:00am 12.1 12.4 10.8 92 0.7 CALM 0 0 0 0 1009.9 1009.9 0.0
29/01:30am 12.4 11.3 10.8 90 0.8 N 7 9 4 5 1010.1 1010.1 0.0
29/01:00am 12.3 10.9 10.9 91 0.7 N 9 9 5 5 1011.0 1011.0 0.0
29/12:30am 12.0 10.1 10.4 90 0.8 N 11 13 6 7 1011.6 1011.6 0.0
29/12:00am 12.3 10.8 10.5 89 0.9 N 9 11 5 6 1011.8 1011.8 0.0
 
Date/Time
EST
Temp
°C
App
Temp
°C
Dew
Point
°C
Rel
Hum
%
Delta-T
°C
Wind Press
QNH
hPa
Press
MSL
hPa
Rain since
9am
mm
Dir  Spd
km/h
Gust
km/h
Spd
kts
Gust
kts
28/11:30pm 11.7 10.0 9.9 89 0.9 N 9 11 5 6 1012.1 1012.1 0.0
28/11:00pm 13.6 12.5 10.6 82 1.6 N 7 9 4 5 1012.3 1012.3 0.0
28/10:30pm 13.1 11.6 10.5 84 1.4 N 9 11 5 6 1012.4 1012.4 0.0
28/10:00pm 12.7 11.5 9.7 82 1.5 NW 6 7 3 4 1012.6 1012.6 0.0
28/09:30pm 13.3 12.2 9.9 80 1.7 WNW 6 7 3 4 1012.7 1012.7 0.0
28/09:00pm 14.0 14.1 10.0 77 2.1 CALM 0 0 0 0 1012.8 1012.8 0.0
28/08:30pm 14.7 14.3 9.7 72 2.6 NE 2 6 1 3 1012.8 1012.8 0.0
28/08:00pm 16.3 15.3 10.2 67 3.2 NE 6 9 3 5 1012.8 1012.8 0.0
28/07:30pm 15.5 14.3 9.6 68 3.1 NNE 6 9 3 5 1012.5 1012.5 0.0
28/07:00pm 17.8 15.9 9.2 57 4.5 E 9 17 5 9 1012.3 1012.3 0.0
28/06:30pm 18.4 15.8 9.2 55 4.8 E 13 20 7 11 1011.9 1011.9 0.0
28/06:00pm 18.6 15.5 8.8 53 5.1 E 15 20 8 11 1012.0 1012.0 0.0
28/05:30pm 19.5 15.9 8.5 49 5.7 E 17 24 9 13 1011.7 1011.7 0.0
28/05:00pm 20.4 16.5 8.7 47 6.1 E 19 30 10 16 1011.1 1011.1 0.0
28/04:30pm 21.3 17.8 8.6 44 6.7 E 17 26 9 14 1010.9 1010.9 0.0
28/04:00pm 21.8 17.9 8.7 43 6.9 ESE 19 28 10 15 1010.6 1010.6 0.0
28/03:30pm 22.4 18.1 7.8 39 7.6 ESE 20 30 11 16 1010.3 1010.3 0.0
28/03:00pm 22.7 17.9 7.3 37 8.0 ESE 22 32 12 17 1010.5 1010.5 0.0
28/02:30pm 23.4 19.2 8.3 38 8.0 ESE 20 28 11 15 1010.6 1010.6 0.0
28/02:00pm 23.3 19.5 7.4 36 8.3 SE 17 24 9 13 1011.1 1011.1 0.0
28/01:30pm 23.8 19.8 8.2 37 8.3 ESE 19 26 10 14 1011.3 1011.3 0.0
28/01:00pm 23.8 20.9 4.7 29 9.5 SSE 9 17 5 9 1011.9 1011.9 0.0
28/12:30pm 23.6 20.5 5.5 31 9.1 NNE 11 15 6 8 1012.4 1012.4 0.0
28/12:00pm 23.1 20.2 4.6 30 9.1 ENE 9 15 5 8 1012.9 1012.9 0.0
28/11:30am 23.0 20.0 5.9 33 8.7 SSE 11 17 6 9 1013.1 1013.1 0.0

Other Formats:

Comma delimited format used in spreadsheet applications
http://www.bom.gov.au/fwo/IDN60801/IDN60801.94572.axf

JavaScript Object Notation format (JSON) in row-major order
http://www.bom.gov.au/fwo/IDN60801/IDN60801.94572.json